Time;durP1;ratioP1;P1;durP2;ratioP2;P2;SDS_P1;SDS_P2;PMS_P1;PMS_P2;Temp;Humidity;BMP_temperature;BMP_pressure;BME280_temperature;BME280_humidity;BME280_pressure;Samples;Min_cycle;Max_cycle;Signal;HPM_P1;HPM_P2
2021/06/08 00:01:41;;;;;;;18.85;2.78;;;;;;;;;;4972646;28;20026;-44
2021/06/08 00:04:08;;;;;;;20.27;3.88;;;;;;;;;;4951680;28;20406;-42
2021/06/08 00:06:35;;;;;;;22.48;3.72;;;;;;;;;;4965982;28;20022;-43
2021/06/08 00:09:02;;;;;;;17.67;3.70;;;;;;;;;;4970095;28;20023;-43
2021/06/08 00:11:29;;;;;;;18.52;3.58;;;;;;;;;;4969674;28;20030;-43
2021/06/08 00:13:57;;;;;;;20.08;3.30;;;;;;;;;;4976339;28;20038;-41
2021/06/08 00:16:25;;;;;;;18.33;4.00;;;;;;;;;;4971513;28;20106;-43
2021/06/08 00:18:52;;;;;;;24.67;4.10;;;;;;;;;;4973687;28;20030;-43
2021/06/08 00:21:19;;;;;;;15.90;4.35;;;;;;;;;;4975416;28;20027;-43
2021/06/08 00:23:46;;;;;;;21.55;4.25;;;;;;;;;;4970221;28;20141;-43
2021/06/08 00:26:13;;;;;;;18.23;4.25;;;;;;;;;;4975963;28;20771;-44
2021/06/08 00:28:40;;;;;;;28.58;5.20;;;;;;;;;;4970785;28;20034;-44
2021/06/08 00:31:07;;;;;;;23.92;5.45;;;;;;;;;;4973174;28;20836;-43
2021/06/08 00:33:34;;;;;;;22.48;5.03;;;;;;;;;;4974220;28;20030;-45
2021/06/08 00:36:01;;;;;;;24.27;5.70;;;;;;;;;;4968949;28;20015;-45
2021/06/08 00:38:28;;;;;;;21.98;5.20;;;;;;;;;;4973718;28;20098;-41
2021/06/08 00:40:55;;;;;;;14.30;4.95;;;;;;;;;;4968207;28;20082;-41
2021/06/08 00:43:25;;;;;;;21.50;4.85;;;;;;;;;;4975693;28;20019;-41
2021/06/08 00:45:56;;;;;;;20.60;5.55;;;;;;;;;;4974749;28;20225;-41
2021/06/08 00:48:23;;;;;;;28.25;6.57;;;;;;;;;;4971665;28;20019;-42
2021/06/08 00:50:50;;;;;;;17.23;5.15;;;;;;;;;;4966425;28;20631;-39
2021/06/08 00:53:17;;;;;;;19.70;4.72;;;;;;;;;;4969113;28;20026;-42
2021/06/08 00:55:44;;;;;;;24.00;5.22;;;;;;;;;;4955778;28;20031;-42
2021/06/08 00:58:11;;;;;;;22.00;5.28;;;;;;;;;;4955873;28;20046;-42
2021/06/08 01:00:38;;;;;;;21.92;5.15;;;;;;;;;;4973294;28;20046;-42
2021/06/08 01:03:06;;;;;;;22.48;5.15;;;;;;;;;;4974829;28;20019;-42
2021/06/08 01:05:33;;;;;;;26.73;5.88;;;;;;;;;;4968436;28;20390;-42
2021/06/08 01:08:00;;;;;;;20.05;5.82;;;;;;;;;;4963470;28;20135;-42
2021/06/08 01:10:27;;;;;;;26.83;5.45;;;;;;;;;;4957290;28;20052;-43
2021/06/08 01:12:54;;;;;;;16.73;5.28;;;;;;;;;;4975023;28;20395;-43
2021/06/08 01:15:22;;;;;;;22.77;5.30;;;;;;;;;;4975329;28;20110;-44
2021/06/08 01:17:53;;;;;;;17.77;5.15;;;;;;;;;;4972547;28;20062;-42
2021/06/08 01:20:21;;;;;;;17.52;5.03;;;;;;;;;;4975058;28;20042;-43
2021/06/08 01:22:48;;;;;;;19.83;5.22;;;;;;;;;;4948507;28;20041;-39
2021/06/08 01:25:15;;;;;;;14.95;4.95;;;;;;;;;;4949909;28;20039;-43
2021/06/08 01:27:43;;;;;;;15.13;5.10;;;;;;;;;;4966137;28;20030;-42
2021/06/08 01:30:10;;;;;;;14.32;5.57;;;;;;;;;;4973017;28;20019;-42
2021/06/08 01:32:39;;;;;;;19.08;5.28;;;;;;;;;;4975150;28;20015;-39
2021/06/08 01:35:06;;;;;;;15.63;5.13;;;;;;;;;;4975145;28;20031;-41
2021/06/08 01:37:35;;;;;;;12.13;4.53;;;;;;;;;;4975403;28;20022;-41
2021/06/08 01:40:02;;;;;;;15.30;4.78;;;;;;;;;;4974996;28;20033;-41
2021/06/08 01:42:29;;;;;;;16.13;5.18;;;;;;;;;;4972547;28;20026;-39
2021/06/08 01:44:56;;;;;;;14.93;5.28;;;;;;;;;;4975191;28;20093;-41
2021/06/08 01:47:24;;;;;;;13.05;5.47;;;;;;;;;;4974491;28;20395;-42
2021/06/08 01:49:51;;;;;;;12.50;4.88;;;;;;;;;;4975024;28;20026;-41
2021/06/08 01:52:24;;;;;;;14.60;5.55;;;;;;;;;;4974644;28;20074;-43
2021/06/08 01:54:56;;;;;;;17.83;4.72;;;;;;;;;;4971901;28;20039;-40
2021/06/08 01:57:23;;;;;;;;;;;;;;;;;;4974402;28;20023;-41
2021/06/08 02:00:05;;;;;;;13.45;4.53;;;;;;;;;;4973143;28;20004;-39
2021/06/08 02:02:50;;;;;;;13.68;4.05;;;;;;;;;;4974403;28;20049;-42
2021/06/08 02:05:35;;;;;;;14.10;4.95;;;;;;;;;;4972761;28;20528;-41
2021/06/08 02:08:20;;;;;;;13.73;4.80;;;;;;;;;;4974655;28;20098;-42
2021/06/08 02:10:49;;;;;;;19.80;4.25;;;;;;;;;;4975324;28;20166;-43
2021/06/08 02:13:31;;;;;;;14.30;4.82;;;;;;;;;;4975288;28;20086;-40
2021/06/08 02:16:08;;;;;;;10.35;4.35;;;;;;;;;;4975286;28;20026;-42
2021/06/08 02:18:36;;;;;;;19.30;4.50;;;;;;;;;;4975027;28;20023;-41
2021/06/08 02:21:03;;;;;;;14.18;4.00;;;;;;;;;;4974849;28;20027;-41
2021/06/08 02:23:32;;;;;;;10.65;3.65;;;;;;;;;;4975030;28;20022;-43
2021/06/08 02:25:59;;;;;;;15.02;4.25;;;;;;;;;;4974766;28;20395;-43
2021/06/08 02:28:29;;;;;;;12.57;3.90;;;;;;;;;;4957505;28;20029;-43
2021/06/08 02:30:56;;;;;;;15.95;3.97;;;;;;;;;;4974951;28;20033;-43
2021/06/08 02:33:25;;;;;;;13.70;4.05;;;;;;;;;;4974663;28;20022;-42
2021/06/08 02:35:53;;;;;;;13.98;3.97;;;;;;;;;;4957482;28;20023;-43
2021/06/08 02:38:20;;;;;;;11.20;4.00;;;;;;;;;;4974603;28;20026;-43
2021/06/08 02:40:47;;;;;;;14.25;3.85;;;;;;;;;;4957465;28;20531;-43
2021/06/08 02:43:15;;;;;;;11.38;3.25;;;;;;;;;;4974687;28;20023;-43
2021/06/08 02:45:42;;;;;;;13.65;3.55;;;;;;;;;;4974600;28;20109;-43
2021/06/08 02:48:09;;;;;;;11.18;3.53;;;;;;;;;;4974548;28;20069;-43
2021/06/08 02:50:37;;;;;;;8.52;3.08;;;;;;;;;;4974507;28;20042;-43
2021/06/08 02:53:04;;;;;;;10.55;2.92;;;;;;;;;;4974434;28;20015;-43
2021/06/08 02:55:31;;;;;;;11.07;3.58;;;;;;;;;;4969357;28;20034;-42
2021/06/08 02:57:59;;;;;;;7.72;3.10;;;;;;;;;;4973518;28;20023;-42
2021/06/08 03:00:26;;;;;;;9.05;3.20;;;;;;;;;;4973849;28;20062;-43
2021/06/08 03:02:57;;;;;;;10.30;3.17;;;;;;;;;;4973540;28;20019;-43
2021/06/08 03:05:24;;;;;;;7.93;3.08;;;;;;;;;;4974040;28;20022;-43
2021/06/08 03:07:53;;;;;;;9.32;3.05;;;;;;;;;;4973186;28;20077;-41
2021/06/08 03:10:22;;;;;;;6.97;3.00;;;;;;;;;;4974026;28;20074;-43
2021/06/08 03:12:57;;;;;;;11.63;2.90;;;;;;;;;;4973557;28;20419;-42
2021/06/08 03:15:28;;;;;;;14.65;2.97;;;;;;;;;;4973745;28;20037;-44
2021/06/08 03:17:55;;;;;;;6.15;2.67;;;;;;;;;;4973206;28;20034;-42
2021/06/08 03:20:29;;;;;;;8.15;2.45;;;;;;;;;;4973998;28;20351;-42
2021/06/08 03:22:59;;;;;;;8.55;2.85;;;;;;;;;;4973473;28;20023;-43
2021/06/08 03:25:26;;;;;;;8.63;2.72;;;;;;;;;;4973594;28;20050;-42
2021/06/08 03:27:55;;;;;;;6.18;2.67;;;;;;;;;;4972949;28;20478;-43
2021/06/08 03:30:22;;;;;;;6.93;3.17;;;;;;;;;;4973683;28;20031;-43
2021/06/08 03:32:51;;;;;;;7.82;2.67;;;;;;;;;;4973072;28;20023;-42
2021/06/08 03:35:18;;;;;;;5.88;2.60;;;;;;;;;;4973405;28;20146;-42
2021/06/08 03:37:45;;;;;;;10.30;2.53;;;;;;;;;;4973053;28;20105;-43
2021/06/08 03:40:13;;;;;;;10.27;2.83;;;;;;;;;;4973503;28;20038;-43
2021/06/08 03:42:41;;;;;;;6.88;2.42;;;;;;;;;;4973031;28;20030;-43
2021/06/08 03:45:15;;;;;;;6.35;2.53;;;;;;;;;;4972947;28;20034;-42
2021/06/08 03:47:43;;;;;;;8.65;2.30;;;;;;;;;;4972840;28;20061;-42
2021/06/08 03:50:15;;;;;;;5.95;2.42;;;;;;;;;;4973355;28;20190;-42
2021/06/08 03:52:43;;;;;;;6.55;2.45;;;;;;;;;;4973138;28;20023;-42
2021/06/08 03:55:11;;;;;;;8.10;2.20;;;;;;;;;;4972982;28;20126;-43
2021/06/08 03:57:39;;;;;;;4.80;2.28;;;;;;;;;;4972896;28;20025;-42
2021/06/08 04:00:10;;;;;;;5.50;2.10;;;;;;;;;;4972591;28;20085;-42
2021/06/08 04:02:41;;;;;;;4.85;2.10;;;;;;;;;;4973172;28;20018;-42
2021/06/08 04:05:09;;;;;;;6.40;1.90;;;;;;;;;;4972810;28;20386;-42
2021/06/08 04:07:38;;;;;;;5.50;2.15;;;;;;;;;;4973119;28;20019;-44
2021/06/08 04:10:05;;;;;;;4.75;1.95;;;;;;;;;;4972299;28;20022;-43
2021/06/08 04:12:32;;;;;;;5.82;2.22;;;;;;;;;;4973268;28;20121;-43
2021/06/08 04:15:00;;;;;;;7.65;2.38;;;;;;;;;;4972586;28;20039;-43
2021/06/08 04:17:27;;;;;;;3.80;2.10;;;;;;;;;;4973031;28;20506;-43
2021/06/08 04:19:54;;;;;;;5.38;2.08;;;;;;;;;;4972385;28;20645;-43
2021/06/08 04:22:28;;;;;;;5.07;2.42;;;;;;;;;;4972866;28;20371;-42
2021/06/08 04:24:55;;;;;;;6.50;2.25;;;;;;;;;;4972067;28;20043;-42
2021/06/08 04:27:23;;;;;;;6.78;2.03;;;;;;;;;;4955592;28;20027;-44
2021/06/08 04:29:50;;;;;;;6.22;2.20;;;;;;;;;;4972116;28;20433;-43
2021/06/08 04:32:18;;;;;;;6.00;2.00;;;;;;;;;;4972960;28;20546;-43
2021/06/08 04:34:52;;;;;;;5.65;1.95;;;;;;;;;;4972328;28;20118;-42
2021/06/08 04:37:20;;;;;;;2.78;1.77;;;;;;;;;;4955632;28;20110;-42
2021/06/08 04:39:47;;;;;;;4.20;1.88;;;;;;;;;;4972382;28;20022;-41
2021/06/08 04:42:15;;;;;;;4.13;1.60;;;;;;;;;;4972589;28;20046;-43
2021/06/08 04:44:49;;;;;;;3.13;1.50;;;;;;;;;;4972777;28;20419;-43
2021/06/08 04:47:20;;;;;;;7.00;1.85;;;;;;;;;;4972207;28;20390;-43
2021/06/08 04:49:47;;;;;;;4.05;1.42;;;;;;;;;;4972538;28;20023;-43
2021/06/08 04:52:14;;;;;;;5.32;1.92;;;;;;;;;;4972010;28;20103;-42
2021/06/08 04:54:42;;;;;;;4.55;1.60;;;;;;;;;;4972623;28;20041;-43
2021/06/08 04:57:11;;;;;;;4.22;1.80;;;;;;;;;;4974840;28;20490;-43
2021/06/08 04:59:42;;;;;;;4.95;1.50;;;;;;;;;;4976124;28;20026;-43
2021/06/08 05:02:10;;;;;;;4.35;1.50;;;;;;;;;;4975974;28;20019;-43
2021/06/08 05:04:39;;;;;;;3.90;1.73;;;;;;;;;;4975998;28;20030;-43
2021/06/08 05:07:08;;;;;;;2.45;1.38;;;;;;;;;;4975632;28;20420;-43
2021/06/08 05:09:40;;;;;;;3.85;1.77;;;;;;;;;;4975947;28;20081;-42
2021/06/08 05:12:09;;;;;;;9.00;1.63;;;;;;;;;;4975919;28;20034;-42
2021/06/08 05:14:37;;;;;;;2.38;1.70;;;;;;;;;;4976108;28;20047;-42
2021/06/08 05:17:04;;;;;;;3.40;1.75;;;;;;;;;;4958090;28;20446;-42
2021/06/08 05:19:33;;;;;;;2.25;1.30;;;;;;;;;;4975828;28;20034;-43
2021/06/08 05:22:00;;;;;;;3.38;1.70;;;;;;;;;;4975351;28;20169;-43
2021/06/08 05:24:28;;;;;;;3.60;1.40;;;;;;;;;;4975660;28;20090;-43
2021/06/08 05:26:55;;;;;;;3.95;1.55;;;;;;;;;;4967656;28;20023;-42
2021/06/08 05:29:24;;;;;;;4.72;1.60;;;;;;;;;;4975794;28;20026;-43
2021/06/08 05:31:51;;;;;;;3.03;1.60;;;;;;;;;;4975612;28;20019;-43
2021/06/08 05:34:21;;;;;;;2.33;1.20;;;;;;;;;;4975008;28;20483;-43
2021/06/08 05:36:49;;;;;;;3.30;1.50;;;;;;;;;;4975713;28;20042;-43
2021/06/08 05:39:16;;;;;;;2.25;1.27;;;;;;;;;;4975221;28;20065;-43
2021/06/08 05:41:43;;;;;;;3.60;1.77;;;;;;;;;;4975260;28;20023;-43
2021/06/08 05:44:11;;;;;;;4.85;1.33;;;;;;;;;;4975116;28;20027;-43
2021/06/08 05:46:38;;;;;;;4.03;1.40;;;;;;;;;;4975195;28;20097;-42
2021/06/08 05:49:06;;;;;;;3.88;1.20;;;;;;;;;;4974873;28;20479;-42
2021/06/08 05:51:34;;;;;;;2.60;1.30;;;;;;;;;;4975362;28;20030;-42
2021/06/08 05:54:17;;;;;;;3.22;1.42;;;;;;;;;;4922033;28;20054;-42
2021/06/08 05:56:44;;;;;;;2.47;1.20;;;;;;;;;;4975264;28;20035;-42
2021/06/08 05:59:14;;;;;;;1.83;1.13;;;;;;;;;;4974716;28;20042;-43
2021/06/08 06:01:42;;;;;;;2.92;0.93;;;;;;;;;;4975291;28;20549;-42
2021/06/08 06:04:12;;;;;;;1.85;1.15;;;;;;;;;;4974598;28;20047;-43
2021/06/08 06:06:40;;;;;;;2.30;0.93;;;;;;;;;;4975159;28;20062;-43
2021/06/08 06:09:08;;;;;;;3.75;1.10;;;;;;;;;;4956643;28;20019;-43
2021/06/08 06:11:36;;;;;;;3.13;1.30;;;;;;;;;;4974703;28;20026;-41
2021/06/08 06:14:04;;;;;;;1.65;1.00;;;;;;;;;;4974108;28;20046;-40
2021/06/08 06:16:34;;;;;;;3.53;1.10;;;;;;;;;;4974849;28;20023;-42
2021/06/08 06:19:02;;;;;;;3.10;1.20;;;;;;;;;;4975028;28;20052;-42
2021/06/08 06:21:29;;;;;;;2.05;0.95;;;;;;;;;;4974185;28;20019;-43
2021/06/08 06:23:57;;;;;;;2.45;1.20;;;;;;;;;;4974398;28;20102;-39
2021/06/08 06:26:27;;;;;;;1.95;0.98;;;;;;;;;;4957065;28;20081;-43
2021/06/08 06:28:55;;;;;;;2.95;1.00;;;;;;;;;;4974580;28;20026;-43
2021/06/08 06:31:23;;;;;;;2.60;1.10;;;;;;;;;;4973914;28;20030;-44
2021/06/08 06:33:53;;;;;;;1.77;1.10;;;;;;;;;;4974409;28;20142;-44
2021/06/08 06:36:21;;;;;;;1.85;1.10;;;;;;;;;;4974194;28;20392;-41
2021/06/08 06:38:52;;;;;;;1.25;1.00;;;;;;;;;;4974398;28;20479;-43
2021/06/08 06:41:20;;;;;;;2.33;1.20;;;;;;;;;;4973457;28;20023;-43
2021/06/08 06:43:51;;;;;;;1.77;1.00;;;;;;;;;;4974284;28;20019;-44
2021/06/08 06:46:18;;;;;;;2.30;1.20;;;;;;;;;;4974094;28;20026;-42
2021/06/08 06:48:46;;;;;;;1.42;1.00;;;;;;;;;;4974185;28;20074;-43
2021/06/08 06:51:13;;;;;;;1.73;1.00;;;;;;;;;;4973852;28;20026;-40
2021/06/08 06:53:41;;;;;;;1.35;0.80;;;;;;;;;;4974121;28;20070;-40
2021/06/08 06:56:08;;;;;;;1.02;0.70;;;;;;;;;;4973551;28;20031;-43
2021/06/08 06:58:36;;;;;;;1.60;0.80;;;;;;;;;;4974332;28;20025;-43
2021/06/08 07:01:03;;;;;;;2.20;1.00;;;;;;;;;;4973588;28;20055;-39
2021/06/08 07:03:33;;;;;;;4.53;0.95;;;;;;;;;;4974319;28;20513;-42
2021/06/08 07:06:00;;;;;;;1.75;0.82;;;;;;;;;;4973495;28;20019;-42
2021/06/08 07:08:29;;;;;;;1.83;0.88;;;;;;;;;;4973885;28;20033;-43
2021/06/08 07:10:56;;;;;;;1.23;0.90;;;;;;;;;;4973865;28;20050;-43
2021/06/08 07:13:24;;;;;;;1.90;1.00;;;;;;;;;;4973187;28;20043;-42
2021/06/08 07:15:52;;;;;;;1.23;0.90;;;;;;;;;;4973942;28;20546;-42
2021/06/08 07:18:19;;;;;;;1.52;0.73;;;;;;;;;;4973402;28;20030;-42
2021/06/08 07:20:46;;;;;;;1.30;0.77;;;;;;;;;;4972903;28;20027;-43
2021/06/08 07:23:16;;;;;;;1.45;1.00;;;;;;;;;;4973230;28;20101;-43
2021/06/08 07:25:44;;;;;;;2.42;0.90;;;;;;;;;;4973535;28;20505;-43
2021/06/08 07:28:11;;;;;;;2.20;0.90;;;;;;;;;;4973109;28;20042;-43
2021/06/08 07:30:41;;;;;;;2.83;0.90;;;;;;;;;;4973779;28;20022;-42
2021/06/08 07:33:08;;;;;;;2.83;0.90;;;;;;;;;;4972950;28;20018;-43
2021/06/08 07:35:41;;;;;;;2.60;0.80;;;;;;;;;;4973369;28;20197;-43
2021/06/08 07:38:16;;;;;;;2.45;0.82;;;;;;;;;;4972648;28;20018;-43
2021/06/08 07:40:49;;;;;;;1.63;1.30;;;;;;;;;;4973485;28;20360;-42
2021/06/08 07:43:15;;;;;;;;;;;;;;;;;;4973214;28;20034;-40
2021/06/08 07:45:45;;;;;;;3.30;0.90;;;;;;;;;;4973269;28;20351;-43
2021/06/08 07:48:25;;;;;;;2.20;1.15;;;;;;;;;;4972797;28;20117;-41
2021/06/08 07:50:53;;;;;;;2.17;0.80;;;;;;;;;;4973584;28;20557;-42
2021/06/08 07:53:21;;;;;;;1.98;0.90;;;;;;;;;;4972946;28;20023;-42
2021/06/08 07:55:49;;;;;;;1.98;0.80;;;;;;;;;;4973002;28;20421;-42
2021/06/08 07:58:24;;;;;;;1.23;0.63;;;;;;;;;;4973302;28;20098;-41
2021/06/08 08:00:52;;;;;;;0.70;0.55;;;;;;;;;;4973016;28;20371;-41
2021/06/08 08:03:30;;;;;;;1.38;0.90;;;;;;;;;;4972839;28;20098;-42
2021/06/08 08:06:08;;;;;;;1.23;0.70;;;;;;;;;;4972634;28;20085;-42
2021/06/08 08:08:36;;;;;;;3.45;0.75;;;;;;;;;;4973021;28;20525;-42
2021/06/08 08:11:08;;;;;;;1.55;1.02;;;;;;;;;;4972835;28;20037;-43
2021/06/08 08:13:35;;;;;;;2.10;0.80;;;;;;;;;;4972974;28;20048;-42
2021/06/08 08:16:04;;;;;;;1.77;0.80;;;;;;;;;;4972442;28;20019;-43
2021/06/08 08:18:31;;;;;;;1.65;0.90;;;;;;;;;;4972855;28;20027;-42
2021/06/08 08:20:58;;;;;;;2.95;0.70;;;;;;;;;;4972586;28;20027;-42
2021/06/08 08:23:27;;;;;;;2.28;0.90;;;;;;;;;;4972570;28;20103;-42
2021/06/08 08:25:55;;;;;;;3.22;0.70;;;;;;;;;;4972150;28;20057;-42
2021/06/08 08:28:25;;;;;;;1.38;0.73;;;;;;;;;;4972947;28;20411;-42
2021/06/08 08:30:52;;;;;;;2.35;0.98;;;;;;;;;;4973295;28;20391;-43
2021/06/08 08:33:22;;;;;;;1.02;0.80;;;;;;;;;;4976567;28;20019;-42
2021/06/08 08:35:49;;;;;;;1.42;0.75;;;;;;;;;;4976183;28;20487;-43
2021/06/08 08:38:16;;;;;;;1.95;0.80;;;;;;;;;;4976714;28;20095;-42
2021/06/08 08:40:43;;;;;;;0.85;0.50;;;;;;;;;;4976086;28;20023;-43
2021/06/08 08:43:10;;;;;;;2.05;0.63;;;;;;;;;;4976272;28;20379;-42
2021/06/08 08:45:37;;;;;;;1.60;0.80;;;;;;;;;;4976712;28;20553;-43
2021/06/08 08:48:05;;;;;;;1.05;0.60;;;;;;;;;;4976106;28;20034;-43
2021/06/08 08:50:32;;;;;;;0.98;0.60;;;;;;;;;;4976633;28;20046;-43
2021/06/08 08:53:02;;;;;;;0.85;0.70;;;;;;;;;;4975998;28;20034;-43
2021/06/08 08:55:31;;;;;;;0.90;0.60;;;;;;;;;;4976161;28;20046;-42
2021/06/08 08:57:59;;;;;;;1.48;0.70;;;;;;;;;;4975475;28;20484;-42
2021/06/08 09:00:28;;;;;;;0.93;0.60;;;;;;;;;;4976406;28;20081;-43
2021/06/08 09:02:56;;;;;;;1.48;0.73;;;;;;;;;;4975612;28;20102;-42
2021/06/08 09:05:24;;;;;;;2.15;0.70;;;;;;;;;;4976133;28;20022;-43
2021/06/08 09:07:52;;;;;;;0.70;0.50;;;;;;;;;;4958084;28;20430;-42
2021/06/08 09:10:20;;;;;;;1.80;1.00;;;;;;;;;;4976312;28;20023;-43
2021/06/08 09:12:47;;;;;;;1.25;0.55;;;;;;;;;;4975652;28;20022;-43
2021/06/08 09:15:14;;;;;;;1.25;0.60;;;;;;;;;;4975621;28;20122;-42
2021/06/08 09:17:41;;;;;;;3.42;0.65;;;;;;;;;;4975536;28;20671;-42
2021/06/08 09:20:12;;;;;;;1.05;0.68;;;;;;;;;;4975728;28;20029;-43
2021/06/08 09:22:57;;;;;;;1.50;0.60;;;;;;;;;;4975424;28;20027;-43
2021/06/08 09:25:36;;;;;;;3.33;1.13;;;;;;;;;;4975414;28;20113;-43
2021/06/08 09:28:22;;;;;;;4.07;0.90;;;;;;;;;;4975239;28;20386;-40
2021/06/08 09:30:49;;;;;;;1.30;0.65;;;;;;;;;;4975840;28;20022;-41
2021/06/08 09:33:21;;;;;;;1.15;0.55;;;;;;;;;;4975141;28;20023;-41
2021/06/08 09:36:08;;;;;;;2.17;0.60;;;;;;;;;;4975510;28;20030;-43
2021/06/08 09:38:38;;;;;;;1.38;0.50;;;;;;;;;;4975161;28;20023;-39
2021/06/08 09:41:12;;;;;;;1.48;0.77;;;;;;;;;;4975519;28;20023;-44
2021/06/08 09:43:51;;;;;;;1.40;0.60;;;;;;;;;;4974049;28;20019;-43
2021/06/08 09:46:19;;;;;;;2.75;0.60;;;;;;;;;;4975545;28;20034;-42
2021/06/08 09:48:52;;;;;;;0.95;0.50;;;;;;;;;;4974978;28;20109;-43
2021/06/08 09:51:19;;;;;;;0.85;0.60;;;;;;;;;;4975344;28;20031;-41
2021/06/08 09:53:46;;;;;;;1.13;0.50;;;;;;;;;;4974413;28;20430;-42
2021/06/08 09:56:14;;;;;;;4.35;0.80;;;;;;;;;;4974832;28;20030;-43
2021/06/08 09:58:46;;;;;;;1.88;0.85;;;;;;;;;;4954443;28;20420;-39
2021/06/08 10:01:14;;;;;;;4.90;1.03;;;;;;;;;;4974871;28;20078;-42
2021/06/08 10:03:44;;;;;;;2.13;0.60;;;;;;;;;;4974484;28;20074;-41
2021/06/08 10:06:15;;;;;;;1.83;0.70;;;;;;;;;;4974286;28;20022;-40
2021/06/08 10:08:51;;;;;;;1.85;0.60;;;;;;;;;;4974621;28;20550;-43
2021/06/08 10:11:29;;;;;;;1.05;0.60;;;;;;;;;;4973110;28;20101;-43
2021/06/08 10:13:58;;;;;;;1.70;0.70;;;;;;;;;;4974058;28;20027;-42
2021/06/08 10:16:30;;;;;;;1.45;0.70;;;;;;;;;;4973856;28;20054;-41
2021/06/08 10:18:58;;;;;;;1.37;0.60;;;;;;;;;;4974678;28;20530;-39
2021/06/08 10:21:35;;;;;;;2.30;0.55;;;;;;;;;;4974172;28;20018;-39
2021/06/08 10:24:07;;;;;;;3.10;0.80;;;;;;;;;;4974073;28;20047;-42
2021/06/08 10:26:35;;;;;;;1.45;0.57;;;;;;;;;;4956696;28;20038;-41
2021/06/08 10:29:06;;;;;;;2.30;0.90;;;;;;;;;;4974465;28;20023;-39
2021/06/08 10:31:34;;;;;;;5.90;0.63;;;;;;;;;;4973722;28;20093;-41
2021/06/08 10:34:04;;;;;;;3.58;0.63;;;;;;;;;;4974382;28;20298;-40
2021/06/08 10:36:31;;;;;;;5.00;0.73;;;;;;;;;;4973156;28;20037;-39
2021/06/08 10:38:59;;;;;;;1.45;0.60;;;;;;;;;;4971358;28;20941;-42
2021/06/08 10:41:26;;;;;;;1.65;0.60;;;;;;;;;;4972828;28;20015;-39
2021/06/08 10:43:53;;;;;;;1.65;0.82;;;;;;;;;;4957387;28;20119;-37
2021/06/08 10:46:26;;;;;;;1.13;0.75;;;;;;;;;;4953413;28;20023;-42
2021/06/08 10:48:53;;;;;;;0.57;0.50;;;;;;;;;;4955945;28;20027;-48
2021/06/08 10:51:22;;;;;;;1.23;0.60;;;;;;;;;;4954022;28;20027;-48
2021/06/08 10:53:50;;;;;;;1.70;0.60;;;;;;;;;;4954397;28;20134;-43
2021/06/08 10:56:23;;;;;;;1.13;0.50;;;;;;;;;;4953373;28;20494;-42
2021/06/08 10:58:52;;;;;;;2.20;0.63;;;;;;;;;;4973784;28;20479;-42
2021/06/08 11:01:41;;;;;;;2.10;0.60;;;;;;;;;;4973970;28;20046;-47
2021/06/08 11:04:10;;;;;;;1.55;0.65;;;;;;;;;;4973485;28;20041;-42
2021/06/08 11:06:48;;;;;;;2.15;0.60;;;;;;;;;;4972875;28;20022;-43
2021/06/08 11:09:16;;;;;;;2.30;0.60;;;;;;;;;;4971599;28;20096;-43
2021/06/08 11:11:48;;;;;;;0.93;0.50;;;;;;;;;;4955864;28;20022;-36
2021/06/08 11:14:36;;;;;;;1.70;0.50;;;;;;;;;;4971832;28;20035;-45
2021/06/08 11:17:03;;;;;;;3.78;0.55;;;;;;;;;;4973148;28;20038;-43
2021/06/08 11:19:45;;;;;;;1.80;0.60;;;;;;;;;;4971203;28;20620;-43
2021/06/08 11:22:12;;;;;;;;;;;;;;;;;;4972813;28;20483;-44
2021/06/08 11:24:40;;;;;;;0.57;0.40;;;;;;;;;;4972550;28;20046;-43
2021/06/08 11:27:07;;;;;;;1.48;0.68;;;;;;;;;;4973021;28;20023;-43
2021/06/08 11:29:57;;;;;;;2.38;0.70;;;;;;;;;;4972542;28;20011;-43
2021/06/08 11:32:30;;;;;;;1.80;0.60;;;;;;;;;;4970693;28;20084;-43
2021/06/08 11:35:07;;;;;;;1.33;0.52;;;;;;;;;;4972580;28;20027;-43
2021/06/08 11:37:53;;;;;;;0.88;0.60;;;;;;;;;;4972278;28;20035;-43
2021/06/08 11:40:38;;;;;;;1.52;0.60;;;;;;;;;;4955015;28;20508;-43
2021/06/08 11:43:06;;;;;;;1.80;0.50;;;;;;;;;;4971641;28;20031;-43
2021/06/08 11:45:40;;;;;;;2.47;0.50;;;;;;;;;;4970596;28;20033;-43
2021/06/08 11:48:25;;;;;;;1.63;0.60;;;;;;;;;;4972324;28;20077;-43
2021/06/08 11:50:53;;;;;;;1.60;0.52;;;;;;;;;;4971402;28;20039;-43
2021/06/08 11:53:20;;;;;;;1.58;0.50;;;;;;;;;;4954430;28;20387;-43
2021/06/08 11:56:04;;;;;;;3.72;0.80;;;;;;;;;;4971906;28;20046;-43
2021/06/08 11:58:38;;;;;;;1.65;0.50;;;;;;;;;;4971982;28;20023;-43
2021/06/08 12:01:06;;;;;;;1.45;0.45;;;;;;;;;;4971614;28;20027;-43
2021/06/08 12:03:35;;;;;;;2.72;0.60;;;;;;;;;;4971631;28;20077;-43
2021/06/08 12:06:03;;;;;;;1.80;0.50;;;;;;;;;;4971235;28;20045;-42
2021/06/08 12:08:34;;;;;;;1.50;0.63;;;;;;;;;;4972576;28;20019;-42
2021/06/08 12:11:13;;;;;;;2.15;0.60;;;;;;;;;;4972552;28;20030;-41
2021/06/08 12:13:43;;;;;;;2.72;0.32;;;;;;;;;;4972976;28;20019;-41
2021/06/08 12:16:14;;;;;;;3.83;0.50;;;;;;;;;;4971966;28;20031;-40
2021/06/08 12:18:41;;;;;;;1.98;0.47;;;;;;;;;;4973006;28;20026;-43
2021/06/08 12:21:15;;;;;;;1.13;0.60;;;;;;;;;;4972471;28;20415;-41
2021/06/08 12:23:43;;;;;;;1.48;0.50;;;;;;;;;;4954944;28;20027;-41
2021/06/08 12:26:11;;;;;;;4.20;0.50;;;;;;;;;;4971601;28;20502;-40
2021/06/08 12:28:39;;;;;;;3.08;0.70;;;;;;;;;;4972406;28;20038;-40
2021/06/08 12:31:11;;;;;;;0.85;0.50;;;;;;;;;;4972078;28;20037;-41
2021/06/08 12:33:39;;;;;;;1.75;0.68;;;;;;;;;;4972136;28;20023;-42
2021/06/08 12:36:07;;;;;;;1.05;0.60;;;;;;;;;;4969621;28;20027;-41
2021/06/08 12:38:34;;;;;;;1.75;0.65;;;;;;;;;;4972525;28;20159;-41
2021/06/08 12:41:08;;;;;;;0.90;0.60;;;;;;;;;;4955497;28;20030;-41
2021/06/08 12:43:50;;;;;;;3.35;0.60;;;;;;;;;;4972241;28;20104;-41
2021/06/08 12:46:30;;;;;;;2.15;0.70;;;;;;;;;;4972797;28;20033;-42
2021/06/08 12:49:16;;;;;;;1.00;0.50;;;;;;;;;;4972447;28;20027;-41
2021/06/08 12:51:47;;;;;;;1.95;0.63;;;;;;;;;;4972292;28;20050;-40
2021/06/08 12:54:34;;;;;;;1.35;0.60;;;;;;;;;;4972148;28;20501;-41
2021/06/08 12:57:01;;;;;;;2.88;0.60;;;;;;;;;;4971845;28;20031;-41
2021/06/08 12:59:32;;;;;;;1.65;0.47;;;;;;;;;;4954853;28;20050;-41
2021/06/08 13:02:01;;;;;;;3.70;1.63;;;;;;;;;;4954449;28;20023;-43
2021/06/08 13:04:29;;;;;;;1.17;0.60;;;;;;;;;;4971649;28;20479;-43
2021/06/08 13:07:00;;;;;;;0.98;0.40;;;;;;;;;;4972056;28;20023;-41
2021/06/08 13:09:27;;;;;;;2.17;0.50;;;;;;;;;;4971940;28;20471;-41
2021/06/08 13:12:08;;;;;;;2.10;0.70;;;;;;;;;;4954874;28;20033;-42
2021/06/08 13:14:35;;;;;;;2.10;0.50;;;;;;;;;;4971697;28;20364;-42
2021/06/08 13:17:20;;;;;;;3.97;0.55;;;;;;;;;;4972218;28;20098;-41
2021/06/08 13:19:48;;;;;;;1.40;0.50;;;;;;;;;;4975324;28;20023;-41
2021/06/08 13:22:16;;;;;;;4.15;0.60;;;;;;;;;;4975195;28;20032;-41
2021/06/08 13:24:44;;;;;;;2.03;0.70;;;;;;;;;;4974474;28;20047;-42
2021/06/08 13:27:11;;;;;;;3.40;0.60;;;;;;;;;;4974441;28;20117;-41
2021/06/08 13:29:39;;;;;;;2.30;0.68;;;;;;;;;;4971658;28;20019;-41
2021/06/08 13:32:06;;;;;;;1.45;0.50;;;;;;;;;;4973245;28;20063;-42
2021/06/08 13:34:33;;;;;;;3.33;0.98;;;;;;;;;;4972346;28;20060;-41
2021/06/08 13:37:04;;;;;;;1.30;0.60;;;;;;;;;;4974085;28;20098;-42
2021/06/08 13:39:42;;;;;;;4.05;0.63;;;;;;;;;;4973220;28;20033;-41
2021/06/08 13:42:20;;;;;;;1.63;0.60;;;;;;;;;;4964137;28;20027;-40
2021/06/08 13:44:57;;;;;;;3.67;0.70;;;;;;;;;;4971812;28;20031;-42
2021/06/08 13:47:37;;;;;;;3.80;0.70;;;;;;;;;;4974280;28;20019;-41
2021/06/08 13:50:20;;;;;;;13.57;2.25;;;;;;;;;;4972078;28;20035;-40
2021/06/08 13:53:08;;;;;;;3.92;0.80;;;;;;;;;;4973439;28;20027;-43
2021/06/08 13:55:46;;;;;;;3.45;0.70;;;;;;;;;;4973363;28;20724;-40
2021/06/08 14:01:10;;;;;;;9.02;0.77;;;;;;;;;;4970170;28;20069;-39
2021/06/08 14:03:38;;;;;;;3.22;0.75;;;;;;;;;;4966431;28;20026;-40
2021/06/08 14:06:08;;;;;;;3.45;0.90;;;;;;;;;;4973321;28;20031;-40
2021/06/08 14:08:35;;;;;;;4.40;0.77;;;;;;;;;;4972768;28;20051;-43
2021/06/08 14:11:04;;;;;;;1.30;0.70;;;;;;;;;;4973092;28;20042;-42
2021/06/08 14:13:38;;;;;;;4.22;0.73;;;;;;;;;;4973162;28;20054;-40
2021/06/08 14:16:06;;;;;;;3.75;0.65;;;;;;;;;;4965229;28;20446;-43
2021/06/08 14:18:38;;;;;;;8.25;0.80;;;;;;;;;;4972759;28;20527;-42
2021/06/08 14:21:05;;;;;;;;;;;;;;;;;;4973539;28;20027;-39
2021/06/08 14:23:32;;;;;;;3.00;0.77;;;;;;;;;;4962510;28;20398;-41
2021/06/08 14:26:00;;;;;;;3.78;0.70;;;;;;;;;;4973178;28;20051;-42
2021/06/08 14:28:27;;;;;;;2.10;0.60;;;;;;;;;;4963922;28;20031;-40
2021/06/08 14:30:54;;;;;;;3.90;0.60;;;;;;;;;;4967049;28;20031;-42
2021/06/08 14:33:22;;;;;;;6.15;0.90;;;;;;;;;;4970934;28;20029;-44
2021/06/08 14:35:49;;;;;;;10.02;1.52;;;;;;;;;;4972514;28;20065;-44
2021/06/08 14:38:16;;;;;;;6.75;0.60;;;;;;;;;;4968098;28;20035;-40
2021/06/08 14:40:43;;;;;;;5.70;1.05;;;;;;;;;;4971100;28;20386;-41
2021/06/08 14:43:10;;;;;;;3.13;0.60;;;;;;;;;;4960199;28;20146;-40
2021/06/08 14:45:37;;;;;;;6.65;0.88;;;;;;;;;;4967482;28;20053;-38
2021/06/08 14:48:04;;;;;;;9.88;1.48;;;;;;;;;;4968680;28;20043;-38
2021/06/08 14:50:31;;;;;;;9.93;1.10;;;;;;;;;;4967827;28;20541;-41
2021/06/08 14:52:58;;;;;;;5.57;0.70;;;;;;;;;;4966635;28;20073;-41
2021/06/08 14:55:25;;;;;;;4.85;0.70;;;;;;;;;;4967199;28;20089;-40
2021/06/08 14:57:52;;;;;;;4.28;0.80;;;;;;;;;;4962749;28;20027;-42
2021/06/08 15:00:19;;;;;;;9.10;1.02;;;;;;;;;;4972064;28;20038;-39